sensor_id;sensor_type;location;lat;lon;timestamp;temperature;humidity
22996;DHT22;11664;49.774;8.650;2022-08-06T10:54:12;25.30;70.00
22996;DHT22;11664;49.774;8.650;2022-08-06T11:01:54;25.20;69.10
22996;DHT22;11664;49.774;8.650;2022-08-06T11:10:02;25.90;68.40
22996;DHT22;11664;49.774;8.650;2022-08-06T11:17:47;25.40;69.30
22996;DHT22;11664;49.774;8.650;2022-08-06T11:25:44;25.60;68.80
22996;DHT22;11664;49.774;8.650;2022-08-06T11:28:14;26.10;67.20
22996;DHT22;11664;49.774;8.650;2022-08-06T11:30:47;26.90;65.10
22996;DHT22;11664;49.774;8.650;2022-08-06T11:33:18;26.50;64.80
22996;DHT22;11664;49.774;8.650;2022-08-06T11:35:46;26.50;64.20
22996;DHT22;11664;49.774;8.650;2022-08-06T11:41:02;26.60;64.30
22996;DHT22;11664;49.774;8.650;2022-08-06T11:54:10;26.40;64.10
22996;DHT22;11664;49.774;8.650;2022-08-06T12:00:04;26.60;62.50
22996;DHT22;11664;49.774;8.650;2022-08-06T12:10:12;26.10;61.40
22996;DHT22;11664;49.774;8.650;2022-08-06T12:12:46;26.00;61.30
22996;DHT22;11664;49.774;8.650;2022-08-06T12:20:05;26.10;60.30
22996;DHT22;11664;49.774;8.650;2022-08-06T12:22:32;26.40;63.40
22996;DHT22;11664;49.774;8.650;2022-08-06T12:25:00;27.30;62.00
22996;DHT22;11664;49.774;8.650;2022-08-06T12:27:34;27.40;60.00
22996;DHT22;11664;49.774;8.650;2022-08-06T12:30:01;27.10;59.70
22996;DHT22;11664;49.774;8.650;2022-08-06T12:32:29;27.00;59.50
22996;DHT22;11664;49.774;8.650;2022-08-06T12:35:09;26.60;59.50
22996;DHT22;11664;49.774;8.650;2022-08-06T12:37:42;26.40;58.90
22996;DHT22;11664;49.774;8.650;2022-08-06T12:40:11;27.10;60.00
22996;DHT22;11664;49.774;8.650;2022-08-06T12:42:50;27.00;58.50
22996;DHT22;11664;49.774;8.650;2022-08-06T12:45:23;27.50;57.20
22996;DHT22;11664;49.774;8.650;2022-08-06T12:50:26;27.80;56.20
22996;DHT22;11664;49.774;8.650;2022-08-06T12:53:03;27.80;56.80
22996;DHT22;11664;49.774;8.650;2022-08-06T12:55:45;27.50;57.80
22996;DHT22;11664;49.774;8.650;2022-08-06T12:58:15;28.00;57.80
22996;DHT22;11664;49.774;8.650;2022-08-06T13:00:43;27.80;58.00
22996;DHT22;11664;49.774;8.650;2022-08-06T13:03:12;27.80;57.80
22996;DHT22;11664;49.774;8.650;2022-08-06T13:05:38;27.10;58.50
22996;DHT22;11664;49.774;8.650;2022-08-06T13:13:04;26.80;56.30
22996;DHT22;11664;49.774;8.650;2022-08-06T13:15:31;27.20;58.20
22996;DHT22;11664;49.774;8.650;2022-08-06T13:18:16;27.50;57.40
22996;DHT22;11664;49.774;8.650;2022-08-06T13:20:44;27.70;56.70
22996;DHT22;11664;49.774;8.650;2022-08-06T13:23:11;27.60;56.00
22996;DHT22;11664;49.774;8.650;2022-08-06T13:25:45;27.70;56.80
22996;DHT22;11664;49.774;8.650;2022-08-06T13:28:13;28.00;55.30
22996;DHT22;11664;49.774;8.650;2022-08-06T13:30:41;28.10;54.00
22996;DHT22;11664;49.774;8.650;2022-08-06T13:33:18;28.20;55.40
22996;DHT22;11664;49.774;8.650;2022-08-06T13:35:44;28.40;54.30
22996;DHT22;11664;49.774;8.650;2022-08-06T13:38:11;28.80;54.50
22996;DHT22;11664;49.774;8.650;2022-08-06T13:40:47;28.50;54.30
22996;DHT22;11664;49.774;8.650;2022-08-06T13:43:13;28.20;53.10
22996;DHT22;11664;49.774;8.650;2022-08-06T13:45:39;28.20;54.10
22996;DHT22;11664;49.774;8.650;2022-08-06T13:48:09;28.40;53.40
22996;DHT22;11664;49.774;8.650;2022-08-06T13:50:37;28.30;52.80
22996;DHT22;11664;49.774;8.650;2022-08-06T13:53:05;28.70;53.90
22996;DHT22;11664;49.774;8.650;2022-08-06T13:55:31;28.20;53.70
22996;DHT22;11664;49.774;8.650;2022-08-06T13:57:57;27.90;53.90
22996;DHT22;11664;49.774;8.650;2022-08-06T14:00:24;28.10;54.50
22996;DHT22;11664;49.774;8.650;2022-08-06T14:02:51;28.00;54.20
22996;DHT22;11664;49.774;8.650;2022-08-06T14:05:16;28.60;53.80
22996;DHT22;11664;49.774;8.650;2022-08-06T14:07:42;28.60;53.10
22996;DHT22;11664;49.774;8.650;2022-08-06T14:10:08;28.70;53.90
22996;DHT22;11664;49.774;8.650;2022-08-06T14:12:34;28.60;53.20
22996;DHT22;11664;49.774;8.650;2022-08-06T14:15:00;28.80;52.90
22996;DHT22;11664;49.774;8.650;2022-08-06T14:17:26;29.10;53.70
22996;DHT22;11664;49.774;8.650;2022-08-06T14:19:54;29.50;52.70
22996;DHT22;11664;49.774;8.650;2022-08-06T14:22:19;29.60;51.10
22996;DHT22;11664;49.774;8.650;2022-08-06T14:24:45;29.80;49.70
22996;DHT22;11664;49.774;8.650;2022-08-06T14:27:12;29.30;49.10
22996;DHT22;11664;49.774;8.650;2022-08-06T14:29:38;29.80;49.90
22996;DHT22;11664;49.774;8.650;2022-08-06T14:32:05;29.90;49.50
22996;DHT22;11664;49.774;8.650;2022-08-06T14:34:31;30.20;50.30
22996;DHT22;11664;49.774;8.650;2022-08-06T14:36:57;30.60;50.10
22996;DHT22;11664;49.774;8.650;2022-08-06T14:39:23;30.60;49.80
22996;DHT22;11664;49.774;8.650;2022-08-06T14:41:49;31.10;48.80
22996;DHT22;11664;49.774;8.650;2022-08-06T14:44:34;30.70;48.30
22996;DHT22;11664;49.774;8.650;2022-08-06T14:47:18;30.20;49.60
22996;DHT22;11664;49.774;8.650;2022-08-06T14:49:43;30.30;49.20
22996;DHT22;11664;49.774;8.650;2022-08-06T14:52:10;29.90;49.00
22996;DHT22;11664;49.774;8.650;2022-08-06T14:54:36;29.60;49.30
22996;DHT22;11664;49.774;8.650;2022-08-06T14:57:07;29.70;49.00
22996;DHT22;11664;49.774;8.650;2022-08-06T14:59:33;29.40;48.50
22996;DHT22;11664;49.774;8.650;2022-08-06T15:01:59;29.00;49.50
22996;DHT22;11664;49.774;8.650;2022-08-06T15:04:25;29.60;50.10
22996;DHT22;11664;49.774;8.650;2022-08-06T15:06:52;30.20;49.00
22996;DHT22;11664;49.774;8.650;2022-08-06T15:09:18;30.70;49.00
22996;DHT22;11664;49.774;8.650;2022-08-06T15:11:44;30.70;48.80
22996;DHT22;11664;49.774;8.650;2022-08-06T15:14:09;31.10;49.00
22996;DHT22;11664;49.774;8.650;2022-08-06T15:16:35;31.20;47.90
22996;DHT22;11664;49.774;8.650;2022-08-06T15:19:01;31.00;47.20
22996;DHT22;11664;49.774;8.650;2022-08-06T15:21:26;31.00;47.70
22996;DHT22;11664;49.774;8.650;2022-08-06T15:23:52;30.80;47.30
22996;DHT22;11664;49.774;8.650;2022-08-06T15:26:19;30.70;47.00
22996;DHT22;11664;49.774;8.650;2022-08-06T15:28:45;31.50;47.00
22996;DHT22;11664;49.774;8.650;2022-08-06T15:31:11;30.90;46.70
22996;DHT22;11664;49.774;8.650;2022-08-06T15:33:37;30.60;47.00
22996;DHT22;11664;49.774;8.650;2022-08-06T15:36:03;30.60;47.20
22996;DHT22;11664;49.774;8.650;2022-08-06T15:38:29;30.20;46.10
22996;DHT22;11664;49.774;8.650;2022-08-06T15:40:55;30.20;48.00
22996;DHT22;11664;49.774;8.650;2022-08-06T15:43:21;30.30;47.20
22996;DHT22;11664;49.774;8.650;2022-08-06T15:45:50;30.50;47.00
22996;DHT22;11664;49.774;8.650;2022-08-06T15:48:15;30.40;46.40
22996;DHT22;11664;49.774;8.650;2022-08-06T15:50:42;30.40;46.90
22996;DHT22;11664;49.774;8.650;2022-08-06T15:53:09;30.60;47.20
22996;DHT22;11664;49.774;8.650;2022-08-06T15:55:35;30.60;46.80
22996;DHT22;11664;49.774;8.650;2022-08-06T15:58:01;30.60;46.90
22996;DHT22;11664;49.774;8.650;2022-08-06T16:00:26;30.80;46.30
22996;DHT22;11664;49.774;8.650;2022-08-06T16:02:52;30.80;45.40
22996;DHT22;11664;49.774;8.650;2022-08-06T16:05:18;30.40;46.50
22996;DHT22;11664;49.774;8.650;2022-08-06T16:07:46;30.50;46.90
22996;DHT22;11664;49.774;8.650;2022-08-06T16:10:12;30.60;46.50
22996;DHT22;11664;49.774;8.650;2022-08-06T16:12:38;30.30;46.40
22996;DHT22;11664;49.774;8.650;2022-08-06T16:15:05;30.20;46.00
22996;DHT22;11664;49.774;8.650;2022-08-06T16:17:30;29.70;46.20
22996;DHT22;11664;49.774;8.650;2022-08-06T16:19:56;29.70;46.90
22996;DHT22;11664;49.774;8.650;2022-08-06T16:22:22;29.80;47.00
22996;DHT22;11664;49.774;8.650;2022-08-06T16:24:48;30.20;47.10
22996;DHT22;11664;49.774;8.650;2022-08-06T16:27:14;30.00;46.30
22996;DHT22;11664;49.774;8.650;2022-08-06T16:29:41;30.10;46.80
22996;DHT22;11664;49.774;8.650;2022-08-06T16:32:07;30.20;47.00
22996;DHT22;11664;49.774;8.650;2022-08-06T16:34:33;30.20;46.10
22996;DHT22;11664;49.774;8.650;2022-08-06T16:36:59;29.90;46.50
22996;DHT22;11664;49.774;8.650;2022-08-06T16:39:25;30.00;47.00
22996;DHT22;11664;49.774;8.650;2022-08-06T16:41:51;29.70;46.00
22996;DHT22;11664;49.774;8.650;2022-08-06T16:44:16;29.50;46.90
22996;DHT22;11664;49.774;8.650;2022-08-06T16:46:42;29.50;46.80
22996;DHT22;11664;49.774;8.650;2022-08-06T16:49:09;29.30;46.90
22996;DHT22;11664;49.774;8.650;2022-08-06T16:51:39;28.40;46.80
22996;DHT22;11664;49.774;8.650;2022-08-06T16:54:04;28.60;47.50
22996;DHT22;11664;49.774;8.650;2022-08-06T16:56:30;28.40;48.50
22996;DHT22;11664;49.774;8.650;2022-08-06T16:58:56;27.90;48.80
22996;DHT22;11664;49.774;8.650;2022-08-06T17:01:21;27.20;49.70
22996;DHT22;11664;49.774;8.650;2022-08-06T17:13:43;25.30;52.20
22996;DHT22;11664;49.774;8.650;2022-08-06T17:16:12;25.20;53.30
22996;DHT22;11664;49.774;8.650;2022-08-06T17:18:38;25.10;53.60
22996;DHT22;11664;49.774;8.650;2022-08-06T17:23:29;24.90;52.30
22996;DHT22;11664;49.774;8.650;2022-08-06T17:38:05;24.40;53.50
